createdAt,value
2019-04-04T00:00:31.901Z,29.27
2019-04-04T00:03:06.689Z,29.93
2019-04-04T00:05:41.435Z,29.90
2019-04-04T00:08:16.328Z,29.30
2019-04-04T00:10:51.222Z,29.40
2019-04-04T00:13:26.012Z,29.37
2019-04-04T00:16:01.007Z,29.73
2019-04-04T00:18:35.727Z,28.87
2019-04-04T00:21:10.545Z,30.10
2019-04-04T00:23:45.328Z,29.07
2019-04-04T00:26:20.088Z,29.53
2019-04-04T00:28:54.821Z,29.13
2019-04-04T00:31:29.567Z,29.83
2019-04-04T00:34:04.449Z,29.53
2019-04-04T00:36:39.295Z,29.03
2019-04-04T00:39:14.014Z,28.60
2019-04-04T00:41:51.840Z,28.87
2019-04-04T00:44:27.731Z,29.30
2019-04-04T00:47:02.481Z,29.10
2019-04-04T00:49:38.239Z,28.83
2019-04-04T00:52:12.976Z,29.57
2019-04-04T00:54:47.699Z,29.93
2019-04-04T00:57:22.442Z,29.73
2019-04-04T00:59:57.168Z,30.20
2019-04-04T01:02:31.991Z,29.90
2019-04-04T01:05:07.045Z,29.73
2019-04-04T01:07:41.795Z,29.33
2019-04-04T01:10:18.726Z,29.07
2019-04-04T01:12:53.340Z,29.23
2019-04-04T01:15:29.021Z,29.17
2019-04-04T01:18:06.144Z,29.13
2019-04-04T01:20:41.285Z,29.13
2019-04-04T01:23:16.088Z,29.27
2019-04-04T01:25:50.868Z,30.20
2019-04-04T01:28:25.695Z,29.10
2019-04-04T01:31:00.590Z,30.00
2019-04-04T01:33:35.338Z,29.10
2019-04-04T01:36:10.084Z,29.27
2019-04-04T01:38:44.885Z,28.97
2019-04-04T01:41:19.695Z,28.77
2019-04-04T01:44:04.505Z,29.53
2019-04-04T01:46:31.021Z,29.27
2019-04-04T01:49:06.787Z,29.47
2019-04-04T01:51:41.599Z,29.13
2019-04-04T01:54:16.335Z,29.70
2019-04-04T01:56:51.071Z,29.30
2019-04-04T01:59:25.793Z,29.27
2019-04-04T02:02:00.575Z,29.03
2019-04-04T02:04:35.391Z,29.13
2019-04-04T02:07:10.210Z,29.00
2019-04-04T02:09:45.012Z,29.20
2019-04-04T02:12:22.935Z,29.53
2019-04-04T02:14:57.655Z,28.80
2019-04-04T02:17:32.460Z,29.13
2019-04-04T02:20:07.998Z,29.33
2019-04-04T02:22:42.779Z,28.97
2019-04-04T02:25:17.655Z,29.27
2019-04-04T02:27:52.482Z,29.30
2019-04-04T02:30:27.276Z,29.43
2019-04-04T02:33:02.106Z,29.67
2019-04-04T02:35:37.001Z,29.27
2019-04-04T02:38:11.734Z,28.53
2019-04-04T02:40:46.631Z,28.93
2019-04-04T02:43:21.442Z,29.07
2019-04-04T02:45:56.168Z,29.00
2019-04-04T02:48:30.979Z,28.93
2019-04-04T02:51:07.940Z,29.40
2019-04-04T02:53:42.397Z,29.50
2019-04-04T02:56:17.101Z,30.40
2019-04-04T02:58:52.015Z,29.73
2019-04-04T03:01:26.711Z,29.00
2019-04-04T03:04:01.562Z,29.33
2019-04-04T03:06:36.334Z,29.00
2019-04-04T03:09:11.059Z,29.43
2019-04-04T03:11:45.920Z,29.30
2019-04-04T03:14:20.709Z,29.10
2019-04-04T03:16:57.035Z,29.43
2019-04-04T03:19:31.964Z,31.10
2019-04-04T03:22:06.698Z,29.77
2019-04-04T03:24:44.835Z,29.13
2019-04-04T03:27:18.090Z,29.30
2019-04-04T03:29:52.930Z,29.97
2019-04-04T03:32:27.716Z,29.43
2019-04-04T03:35:02.503Z,29.73
2019-04-04T03:37:40.519Z,29.37
2019-04-04T03:40:13.771Z,29.47
2019-04-04T03:42:48.528Z,29.37
2019-04-04T03:45:25.997Z,29.20
2019-04-04T03:47:59.632Z,29.70
2019-04-04T03:50:36.655Z,29.27
2019-04-04T03:53:16.157Z,29.27
2019-04-04T03:55:47.852Z,29.27
2019-04-04T03:58:27.053Z,29.57
2019-04-04T04:00:58.987Z,28.97
2019-04-04T04:03:33.730Z,29.10
2019-04-04T04:06:09.666Z,29.17
2019-04-04T04:08:44.812Z,29.07
2019-04-04T04:11:20.148Z,28.80
2019-04-04T04:13:54.838Z,29.17
2019-04-04T04:16:29.570Z,29.23
2019-04-04T04:19:04.329Z,29.03
2019-04-04T04:21:42.747Z,29.13
2019-04-04T04:24:15.447Z,29.37
2019-04-04T04:26:50.879Z,29.03
2019-04-04T04:29:29.507Z,29.50
2019-04-04T04:32:02.069Z,29.20
2019-04-04T04:34:36.800Z,28.83
2019-04-04T04:37:11.515Z,29.10
2019-04-04T04:39:47.298Z,29.40
2019-04-04T04:42:26.334Z,29.17
2019-04-04T04:44:59.624Z,29.13
2019-04-04T04:47:34.340Z,28.90
2019-04-04T04:50:09.981Z,28.63
2019-04-04T04:52:47.376Z,28.97
2019-04-04T04:55:21.409Z,29.90
2019-04-04T04:57:59.191Z,29.43
2019-04-04T05:00:33.894Z,30.27
2019-04-04T05:03:08.648Z,30.80
2019-04-04T05:05:43.406Z,28.97
2019-04-04T05:08:18.172Z,30.13
2019-04-04T05:10:56.124Z,33.50
2019-04-04T05:13:30.843Z,29.57
2019-04-04T05:16:08.761Z,29.43
2019-04-04T05:18:42.066Z,28.97
2019-04-04T05:21:24.988Z,29.33
2019-04-04T05:23:53.202Z,30.33
2019-04-04T05:26:27.947Z,29.90
2019-04-04T05:29:02.746Z,30.20
2019-04-04T05:31:37.468Z,29.90
2019-04-04T05:34:12.230Z,29.00
2019-04-04T05:36:47.021Z,28.77
2019-04-04T05:39:22.360Z,29.67
2019-04-04T05:41:58.066Z,28.87
2019-04-04T05:44:34.313Z,29.50
2019-04-04T05:47:09.227Z,28.90
2019-04-04T05:49:44.014Z,29.77
2019-04-04T05:52:18.776Z,30.67
2019-04-04T05:54:53.461Z,30.80
2019-04-04T05:57:31.569Z,30.10
2019-04-04T06:00:08.018Z,30.03
2019-04-04T06:02:43.287Z,29.97
2019-04-04T06:05:19.808Z,30.70
2019-04-04T06:07:54.580Z,30.33
2019-04-04T06:10:29.390Z,30.60
2019-04-04T06:13:04.080Z,29.10
2019-04-04T06:15:38.854Z,29.43
2019-04-04T06:18:13.568Z,28.53
2019-04-04T06:20:48.972Z,29.07
2019-04-04T06:23:25.126Z,29.07
2019-04-04T06:26:00.543Z,29.57
2019-04-04T06:28:35.226Z,29.17
2019-04-04T06:31:09.952Z,29.77
2019-04-04T06:33:44.644Z,29.57
2019-04-04T06:36:19.351Z,29.07
2019-04-04T06:38:54.622Z,29.00
2019-04-04T06:41:30.663Z,28.07
2019-04-04T06:44:05.966Z,28.97
2019-04-04T06:46:40.678Z,28.63
2019-04-04T06:49:15.402Z,28.40
2019-04-04T06:51:50.111Z,29.27
2019-04-04T06:54:25.645Z,28.63
2019-04-04T06:57:03.533Z,28.93
2019-04-04T06:59:37.816Z,28.70
2019-04-04T07:02:12.767Z,29.67
2019-04-04T07:04:47.467Z,29.13
2019-04-04T07:07:23.230Z,29.03
2019-04-04T07:09:58.081Z,28.53
2019-04-04T07:12:32.782Z,28.90
2019-04-04T07:15:11.246Z,28.40
2019-04-04T07:17:45.176Z,28.83
2019-04-04T07:20:21.966Z,28.37
2019-04-04T07:22:56.674Z,28.87
2019-04-04T07:25:31.382Z,29.07
2019-04-04T07:28:06.155Z,28.87
2019-04-04T07:30:40.942Z,28.83
2019-04-04T07:33:15.650Z,28.93
2019-04-04T07:35:53.707Z,28.60
2019-04-04T07:38:28.676Z,28.40
2019-04-04T07:41:05.974Z,28.17
2019-04-04T07:43:41.775Z,28.37
2019-04-04T07:46:17.212Z,28.47
2019-04-04T07:48:52.325Z,28.37
2019-04-04T07:51:28.056Z,29.40
2019-04-04T07:54:05.185Z,28.87
2019-04-04T07:56:41.035Z,28.97
2019-04-04T07:59:16.814Z,28.73
2019-04-04T08:01:51.737Z,29.37
2019-04-04T08:04:27.472Z,29.33
2019-04-04T08:07:02.159Z,28.30
2019-04-04T08:09:37.035Z,28.37
2019-04-04T08:12:11.743Z,28.70
2019-04-04T08:14:46.446Z,29.73
2019-04-04T08:17:21.139Z,29.20
2019-04-04T08:19:59.885Z,28.63
2019-04-04T08:22:33.632Z,28.30
2019-04-04T08:25:08.602Z,29.60
2019-04-04T08:27:43.389Z,28.23
2019-04-04T08:30:18.246Z,28.43
2019-04-04T08:32:52.953Z,28.73
2019-04-04T08:35:27.657Z,28.53
2019-04-04T08:38:05.206Z,28.10
2019-04-04T08:40:39.959Z,28.17
2019-04-04T08:43:14.780Z,29.00
2019-04-04T08:45:49.554Z,28.30
2019-04-04T08:48:24.347Z,28.00
2019-04-04T08:50:59.049Z,28.23
2019-04-04T08:53:39.648Z,28.40
2019-04-04T08:56:11.786Z,28.27
2019-04-04T08:58:46.491Z,28.00
2019-04-04T09:01:21.386Z,28.17
2019-04-04T09:03:56.188Z,28.93
2019-04-04T09:06:30.972Z,28.20
2019-04-04T09:09:07.507Z,28.27
2019-04-04T09:11:42.261Z,28.13
2019-04-04T09:14:17.006Z,27.83
2019-04-04T09:16:51.875Z,28.73
2019-04-04T09:19:26.567Z,28.33
2019-04-04T09:22:01.273Z,27.97
2019-04-04T09:24:36.105Z,28.67
2019-04-04T09:27:10.933Z,28.27
2019-04-04T09:29:45.626Z,28.40
2019-04-04T09:32:20.618Z,28.13
2019-04-04T09:34:55.316Z,29.30
2019-04-04T09:37:30.030Z,28.13
2019-04-04T09:40:05.387Z,29.27
2019-04-04T09:42:40.165Z,30.10
2019-04-04T09:45:15.195Z,28.07
2019-04-04T09:47:49.981Z,28.20
2019-04-04T09:50:24.675Z,28.83
2019-04-04T09:52:59.408Z,29.57
2019-04-04T09:55:34.129Z,29.63
2019-04-04T09:58:08.910Z,28.87
2019-04-04T10:00:44.534Z,28.67
2019-04-04T10:03:19.450Z,30.03
2019-04-04T10:05:54.165Z,30.50
2019-04-04T10:08:28.862Z,28.37
2019-04-04T10:11:03.759Z,28.83
2019-04-04T10:13:38.478Z,28.87
2019-04-04T10:16:13.175Z,28.97
2019-04-04T10:18:47.978Z,29.10
2019-04-04T10:21:22.801Z,29.37
2019-04-04T10:23:57.494Z,29.80
2019-04-04T10:26:32.276Z,29.70
2019-04-04T10:29:07.079Z,30.10
2019-04-04T10:31:41.771Z,28.83
2019-04-04T10:34:16.475Z,28.33
2019-04-04T10:36:51.278Z,28.17
2019-04-04T10:39:29.375Z,28.47
2019-04-04T10:42:02.501Z,28.43
2019-04-04T10:44:37.393Z,27.93
2019-04-04T10:47:12.531Z,27.57
2019-04-04T10:49:47.246Z,28.00
2019-04-04T10:52:21.935Z,28.77
2019-04-04T10:54:56.638Z,28.27
2019-04-04T10:57:31.327Z,28.20
2019-04-04T11:00:08.672Z,28.47
2019-04-04T11:02:43.350Z,28.77
2019-04-04T11:05:18.254Z,28.93
2019-04-04T11:07:52.951Z,28.37
2019-04-04T11:10:27.659Z,28.60
2019-04-04T11:13:03.027Z,28.60
2019-04-04T11:15:38.031Z,28.03
2019-04-04T11:18:12.770Z,28.23
2019-04-04T11:20:47.459Z,28.00
2019-04-04T11:23:22.166Z,28.47
2019-04-04T11:25:56.856Z,28.10
2019-04-04T11:28:31.573Z,36.33
2019-04-04T11:31:06.330Z,40.73
2019-04-04T11:33:41.110Z,33.43
2019-04-04T11:36:15.811Z,29.07
2019-04-04T11:38:50.586Z,28.07
2019-04-04T11:41:25.451Z,28.10
2019-04-04T11:44:00.170Z,28.53
2019-04-04T11:46:34.890Z,28.87
2019-04-04T11:49:09.698Z,28.50
2019-04-04T11:51:44.487Z,29.27
2019-04-04T11:54:19.210Z,28.70
2019-04-04T11:56:53.983Z,28.77
2019-04-04T11:59:28.715Z,28.87
2019-04-04T12:02:04.480Z,29.40
2019-04-04T12:04:39.263Z,28.43
2019-04-04T12:07:14.037Z,28.37
2019-04-04T12:09:48.922Z,28.30
2019-04-04T12:12:23.639Z,28.33
2019-04-04T12:14:58.431Z,29.60
2019-04-04T12:17:33.140Z,28.53
2019-04-04T12:20:08.156Z,28.50
2019-04-04T12:22:43.993Z,29.10
2019-04-04T12:25:18.791Z,28.77
2019-04-04T12:27:53.537Z,28.80
2019-04-04T12:30:28.338Z,28.73
2019-04-04T12:33:03.106Z,28.83
2019-04-04T12:35:37.903Z,28.60
2019-04-04T12:38:12.795Z,28.23
2019-04-04T12:40:48.051Z,28.63
2019-04-04T12:43:25.220Z,28.73
2019-04-04T12:46:00.015Z,29.43
2019-04-04T12:48:35.002Z,28.47
2019-04-04T12:51:10.011Z,29.23
2019-04-04T12:53:44.727Z,28.63
2019-04-04T12:56:19.487Z,28.97
2019-04-04T12:58:56.533Z,29.23
2019-04-04T13:01:31.252Z,29.27
2019-04-04T13:04:06.120Z,29.53
2019-04-04T13:06:40.846Z,28.73
2019-04-04T13:09:21.497Z,29.27
2019-04-04T13:11:56.289Z,30.03
2019-04-04T13:14:31.123Z,29.10
2019-04-04T13:17:05.945Z,29.27
2019-04-04T13:19:40.772Z,29.57
2019-04-04T13:22:15.555Z,29.17
2019-04-04T13:24:50.414Z,29.53
2019-04-04T13:27:25.158Z,37.40
2019-04-04T13:29:59.859Z,33.43
2019-04-04T13:32:34.554Z,30.70
2019-04-04T13:35:09.511Z,30.83
2019-04-04T13:37:44.344Z,39.03
2019-04-04T13:40:19.146Z,31.83
2019-04-04T13:42:53.836Z,30.00
2019-04-04T13:45:28.538Z,30.10
2019-04-04T13:48:03.302Z,28.80
2019-04-04T13:50:38.150Z,29.50
2019-04-04T13:53:12.844Z,29.57
2019-04-04T13:55:47.559Z,29.47
2019-04-04T13:58:22.966Z,29.77
2019-04-04T14:00:57.825Z,30.37
2019-04-04T14:03:32.532Z,29.70
2019-04-04T14:06:07.243Z,30.10
2019-04-04T14:08:41.931Z,29.77
2019-04-04T14:11:20.212Z,31.60
2019-04-04T14:13:58.899Z,31.27
2019-04-04T14:16:36.595Z,30.43
2019-04-04T14:19:11.624Z,31.10
2019-04-04T14:21:49.274Z,30.67
2019-04-04T14:24:24.115Z,29.43
2019-04-04T14:26:58.890Z,30.10
2019-04-04T14:29:33.595Z,29.77
2019-04-04T14:32:08.315Z,29.00
2019-04-04T14:34:43.024Z,30.27
2019-04-04T14:37:17.820Z,29.30
2019-04-04T14:39:55.074Z,31.10
2019-04-04T14:42:30.371Z,31.63
2019-04-04T14:45:08.968Z,32.47
2019-04-04T14:47:44.048Z,31.40
2019-04-04T14:50:40.002Z,33.17
2019-04-04T14:53:15.219Z,34.80
2019-04-04T14:55:50.301Z,32.00
2019-04-04T14:58:25.370Z,33.03
2019-04-04T15:01:00.376Z,32.30
2019-04-04T15:03:35.402Z,32.13
2019-04-04T15:06:11.649Z,32.30
2019-04-04T15:08:48.111Z,32.97
2019-04-04T15:11:24.818Z,31.10
2019-04-04T15:14:02.307Z,31.50
2019-04-04T15:16:39.124Z,32.57
2019-04-04T15:22:11.147Z,33.27
2019-04-04T15:24:50.289Z,34.30
2019-04-04T15:27:28.827Z,34.63
2019-04-04T15:33:02.697Z,30.37
2019-04-04T15:35:38.196Z,33.90
2019-04-04T15:38:38.721Z,32.17
2019-04-04T15:41:13.169Z,33.33
2019-04-04T15:43:52.857Z,31.30
2019-04-04T15:46:27.993Z,34.03
2019-04-04T15:49:28.206Z,32.33
2019-04-04T15:52:25.992Z,33.67
2019-04-04T15:55:04.945Z,35.47
2019-04-04T15:57:46.830Z,32.83
2019-04-04T16:00:21.687Z,30.47
2019-04-04T16:02:56.614Z,29.40
2019-04-04T16:05:31.499Z,30.17
2019-04-04T16:08:06.320Z,29.57
2019-04-04T16:10:41.083Z,30.10
2019-04-04T16:13:15.922Z,29.47
2019-04-04T16:15:50.652Z,29.80
2019-04-04T16:18:25.454Z,29.63
2019-04-04T16:21:06.202Z,30.40
2019-04-04T16:23:41.710Z,30.73
2019-04-04T16:26:16.559Z,30.43
2019-04-04T16:28:51.356Z,30.70
2019-04-04T16:31:26.086Z,31.17
2019-04-04T16:34:02.911Z,31.37
2019-04-04T16:36:37.735Z,30.27
2019-04-04T16:39:12.599Z,31.00
2019-04-04T16:41:47.354Z,31.20
2019-04-04T16:44:22.135Z,30.80
2019-04-04T16:46:57.955Z,31.00
2019-04-04T16:49:32.827Z,31.13
2019-04-04T16:52:07.690Z,31.73
2019-04-04T16:54:42.399Z,34.37
2019-04-04T16:57:17.102Z,31.80
2019-04-04T16:59:51.961Z,31.60
2019-04-04T17:02:26.746Z,35.20
2019-04-04T17:05:01.620Z,35.20
2019-04-04T17:07:37.438Z,31.77
2019-04-04T17:10:12.422Z,30.83
2019-04-04T17:12:47.215Z,31.57
2019-04-04T17:15:21.982Z,30.97
2019-04-04T17:17:56.792Z,31.33
2019-04-04T17:20:34.941Z,32.07
2019-04-04T17:23:11.374Z,33.93
2019-04-04T17:25:47.071Z,33.63
2019-04-04T17:28:21.783Z,33.67
2019-04-04T17:30:56.680Z,33.07
2019-04-04T17:33:31.415Z,32.57
2019-04-04T17:36:06.270Z,32.27
2019-04-04T17:38:41.542Z,31.00
2019-04-04T17:41:16.335Z,31.70
2019-04-04T17:43:51.051Z,32.00
2019-04-04T17:46:26.273Z,31.33
2019-04-04T17:49:01.184Z,32.30
2019-04-04T17:51:35.879Z,31.73
2019-04-04T17:54:10.699Z,32.00
2019-04-04T17:56:45.656Z,32.27
2019-04-04T17:59:20.515Z,31.70
2019-04-04T18:01:56.286Z,31.87
2019-04-04T18:04:34.595Z,31.50
2019-04-04T18:07:08.326Z,30.57
2019-04-04T18:09:45.446Z,30.60
2019-04-04T18:12:22.887Z,30.70
2019-04-04T18:14:57.607Z,31.00
2019-04-04T18:17:32.299Z,30.40
2019-04-04T18:20:07.901Z,30.43
2019-04-04T18:22:47.001Z,30.63
2019-04-04T18:25:21.755Z,31.43
2019-04-04T18:27:56.614Z,30.97
2019-04-04T18:30:31.399Z,31.17
2019-04-04T18:33:06.209Z,31.33
2019-04-04T18:35:41.498Z,33.07
2019-04-04T18:38:16.327Z,32.20
2019-04-04T18:40:51.221Z,31.03
2019-04-04T18:43:25.992Z,31.23
2019-04-04T18:46:00.992Z,34.80
2019-04-04T18:48:35.751Z,31.20
2019-04-04T18:51:10.454Z,31.60
2019-04-04T18:53:45.363Z,31.57
2019-04-04T18:56:26.200Z,30.50
2019-04-04T18:59:01.002Z,32.23
2019-04-04T19:01:35.765Z,30.20
2019-04-04T19:04:10.695Z,32.20
2019-04-04T19:06:45.500Z,30.73
2019-04-04T19:09:20.471Z,30.70
2019-04-04T19:11:55.330Z,32.13
2019-04-04T19:14:31.257Z,33.07
2019-04-04T19:17:06.172Z,32.17
2019-04-04T19:19:40.967Z,31.83
2019-04-04T19:22:15.858Z,32.90
2019-04-04T19:24:50.579Z,31.90
2019-04-04T19:27:25.484Z,32.33
2019-04-04T19:30:00.320Z,32.07
2019-04-04T19:32:35.052Z,32.53
2019-04-04T19:35:10.406Z,31.53
2019-04-04T19:37:45.276Z,32.20
2019-04-04T19:40:20.411Z,32.33
2019-04-04T19:42:55.113Z,32.37
2019-04-04T19:45:29.883Z,32.57
2019-04-04T19:48:04.695Z,32.43
2019-04-04T19:50:39.473Z,32.13
2019-04-04T19:53:14.733Z,32.90
2019-04-04T19:55:49.534Z,32.77
2019-04-04T19:58:24.315Z,32.00
2019-04-04T20:00:59.255Z,31.77
2019-04-04T20:03:33.994Z,31.20
2019-04-04T20:06:10.482Z,30.57
2019-04-04T20:08:45.176Z,30.13
2019-04-04T20:11:20.019Z,31.30
2019-04-04T20:13:54.710Z,30.93
2019-04-04T20:16:29.495Z,31.20
2019-04-04T20:19:04.486Z,30.67
2019-04-04T20:21:39.257Z,31.13
2019-04-04T20:24:13.947Z,30.97
2019-04-04T20:26:48.666Z,30.47
2019-04-04T20:29:24.476Z,30.07
2019-04-04T20:31:59.210Z,30.07
2019-04-04T20:34:34.166Z,29.87
2019-04-04T20:37:08.882Z,29.13
2019-04-04T20:39:43.666Z,28.93
2019-04-04T20:42:18.383Z,28.70
2019-04-04T20:44:53.067Z,28.37
2019-04-04T20:47:27.846Z,28.37
2019-04-04T20:50:02.627Z,28.80
2019-04-04T20:52:37.334Z,28.57
2019-04-04T20:55:12.170Z,28.73
2019-04-04T20:57:46.967Z,28.70
2019-04-04T21:00:21.820Z,29.00
2019-04-04T21:02:56.574Z,28.77
2019-04-04T21:05:32.379Z,28.90
2019-04-04T21:08:07.155Z,28.57
2019-04-04T21:10:41.855Z,28.57
2019-04-04T21:13:16.657Z,28.80
2019-04-04T21:15:51.363Z,28.33
2019-04-04T21:18:26.164Z,29.27
2019-04-04T21:21:00.946Z,28.60
2019-04-04T21:23:37.714Z,29.13
2019-04-04T21:26:12.512Z,29.27
2019-04-04T21:28:47.220Z,29.23
2019-04-04T21:31:21.956Z,29.73
2019-04-04T21:33:56.658Z,29.43
2019-04-04T21:36:31.514Z,29.77
2019-04-04T21:39:07.886Z,29.57
2019-04-04T21:41:42.582Z,30.67
2019-04-04T21:44:17.301Z,29.37
2019-04-04T21:46:52.017Z,29.83
2019-04-04T21:49:26.720Z,30.20
2019-04-04T21:52:01.435Z,31.13
2019-04-04T21:54:36.129Z,30.80
2019-04-04T21:57:11.820Z,30.53
2019-04-04T21:59:46.583Z,31.50
2019-04-04T22:02:21.575Z,31.27
2019-04-04T22:04:56.407Z,31.00
2019-04-04T22:07:31.134Z,29.93
2019-04-04T22:10:06.904Z,30.17
2019-04-04T22:12:41.846Z,29.90
2019-04-04T22:15:17.510Z,29.73
2019-04-04T22:17:52.226Z,29.57
2019-04-04T22:20:26.955Z,29.67
2019-04-04T22:23:01.815Z,29.77
2019-04-04T22:25:36.515Z,30.03
2019-04-04T22:28:11.240Z,29.47
2019-04-04T22:30:45.998Z,29.67
2019-04-04T22:33:20.957Z,30.20
2019-04-04T22:35:55.650Z,30.07
2019-04-04T22:38:30.343Z,29.37
2019-04-04T22:41:05.224Z,30.03
2019-04-04T22:43:39.920Z,29.87
2019-04-04T22:46:14.630Z,30.33
2019-04-04T22:48:49.354Z,31.07
2019-04-04T22:51:24.055Z,31.47
2019-04-04T22:53:58.902Z,30.93
2019-04-04T22:56:33.598Z,31.10
2019-04-04T22:59:08.395Z,32.17
2019-04-04T23:01:43.203Z,31.23
2019-04-04T23:04:18.043Z,31.37
2019-04-04T23:06:52.826Z,31.23
2019-04-04T23:09:27.552Z,31.43
2019-04-04T23:12:02.355Z,31.83
2019-04-04T23:14:47.280Z,31.30
2019-04-04T23:17:13.484Z,30.17
2019-04-04T23:19:48.271Z,30.70
2019-04-04T23:22:22.975Z,30.23
2019-04-04T23:24:57.679Z,30.20
2019-04-04T23:27:32.378Z,29.97
2019-04-04T23:30:07.781Z,30.03
2019-04-04T23:32:42.692Z,29.57
2019-04-04T23:35:17.387Z,29.57
2019-04-04T23:37:52.102Z,29.27
2019-04-04T23:40:26.875Z,29.93
2019-04-04T23:43:01.634Z,29.07
2019-04-04T23:45:36.338Z,28.77
2019-04-04T23:48:11.131Z,29.20
2019-04-04T23:50:45.835Z,28.63
2019-04-04T23:53:20.756Z,29.30
2019-04-04T23:55:55.527Z,29.30
2019-04-04T23:58:30.251Z,29.30
